Terminal Aerodrome Forecast
Issued by NWS Wilmington, OH

Home | Current Version | Previous Version | Text Only | Print | Product List | Glossary On
Versions: 1 2 3 4 5 6 7 8 9 10 11 12 13 14 15 16 17 18 19 20 21 22 23 24 25 26 27 28 29 30 31 32 33
000
FTUS41 KILN 272102 AAA
TAFCVG
TAF AMD
KCVG 272102Z 2721/2824 24012G20KT P6SM FEW050 SCT250
     FM272300 22006KT P6SM FEW060 SCT250
     FM280900 20004KT P6SM SCT060 BKN200
     FM281300 22006KT P6SM VCSH BKN060
     FM281800 25008KT P6SM VCSH SCT035 BKN060=

USA.gov is the U.S. government's official web portal to all federal, state and local government web resources and services.